Lourenco, Brazil
Current Conditions -  °F | °C
As of 1:30 PM on Thursday 30 Oct 2014 (Local Time) from SOCA Reporting Station
Broken Clouds Broken Clouds  
Wind Chill: 90°   Ceiling: 3900
Heat Index: 98°   Visibility: 6mi
Dew Point: 73°   Wind: 12mph
Humidity: 59%   Direction: 70°ENE
Pressure: 29.8"   Gusts: NA
Location:  2.5°N, 52°W
Report Text: SOCA 301630Z AUTO 07010KT 030V100 9999 FEW030/// BKN039///BKN056/// 32/23 Q1009
Loading
Personal Weather Stations






























Interactive Weather Map
Tropical Storm Tracking
New forecast layout! Learn more

10-Day Weather Forecast

Advertisements
Track Severe Weather on mobile